LEMD METAR and TAF | Updated Today

LEMD METAR

Adolfo Suárez Madrid–Barajas Airport

Observation time: 13 min. ago

LEMD 291930Z VRB02KT 9999 FEW030 13/10 Q1009 NOSIG

Need help? Read our tutorial on how to read METARs or read the parsed version below.

Adolfo Suárez Madrid–Barajas Airport (LEMD) METAR

  • Weather conditions on Thu, 29 Sep 2022 19:30:00 +0000 (13 min. ago):
  • Present conditions: Dry
  • Clouds: A few at 914 meters
  • Visibility: Greater than 10 km
  • Wind: Variable at 2 knots
  • Temperature: 13 celsius
  • Dew point: 10 celsius
  • Pressure: 1009 millibars
  • Remarks: None


Useful to know...

LEMD TAF

Adolfo Suárez Madrid–Barajas Airport

TAF LEMD 291700Z 2918/3024 36007KT 9999 SCT020 SCT040 TX21/3015Z TN09/3006Z PROB40 TEMPO 2918/2921 RA
Observation time: 2:43 hr. ago
Need help? Read our tutorial on how to read TAFs or read the parsed version below.

Parsed version of TAF for Adolfo Suárez Madrid–Barajas Airport (LEMD)

  • From 29 September at 18:00 UTC, to day 30 of the month at 24:00 UTC
  • Clouds: Scattered at 610 meters; scattered at 1219 meters
  • Visibility: Greater than 10 km
  • Wind: 360 degrees at 7
  • Expected to arise temporarily, from 29 September at 18:00 UTC, to day 29 of the month at 21:00 UTC
    Probability of 40%
  • Other: Rain